createdAt,value
2018-08-17T00:00:07.490Z,3.60
2018-08-17T00:02:35.788Z,2.97
2018-08-17T00:05:04.138Z,3.33
2018-08-17T00:07:32.388Z,2.80
2018-08-17T00:10:00.590Z,3.70
2018-08-17T00:12:28.756Z,3.70
2018-08-17T00:14:57.151Z,2.97
2018-08-17T00:17:25.397Z,3.40
2018-08-17T00:19:54.007Z,3.23
2018-08-17T00:22:22.271Z,3.20
2018-08-17T00:24:50.631Z,3.60
2018-08-17T00:27:19.500Z,3.00
2018-08-17T00:29:47.747Z,3.10
2018-08-17T00:32:16.012Z,3.33
2018-08-17T00:34:44.170Z,3.10
2018-08-17T00:37:12.614Z,2.93
2018-08-17T00:39:40.991Z,3.60
2018-08-17T00:42:09.154Z,2.87
2018-08-17T00:44:37.576Z,3.13
2018-08-17T00:47:06.187Z,2.80
2018-08-17T00:49:34.698Z,3.23
2018-08-17T00:52:03.229Z,3.33
2018-08-17T00:54:31.530Z,2.70
2018-08-17T00:56:59.990Z,2.93
2018-08-17T00:59:29.112Z,3.33
2018-08-17T01:01:57.536Z,2.80
2018-08-17T01:04:25.784Z,2.90
2018-08-17T01:06:54.402Z,3.60
2018-08-17T01:09:22.703Z,3.30
2018-08-17T01:11:51.190Z,3.20
2018-08-17T01:14:20.227Z,3.63
2018-08-17T01:16:48.605Z,2.90
2018-08-17T01:19:17.554Z,2.90
2018-08-17T01:21:46.120Z,3.67
2018-08-17T01:24:14.371Z,2.97
2018-08-17T01:26:42.666Z,3.50
2018-08-17T01:29:11.371Z,3.00
2018-08-17T01:31:39.654Z,3.60
2018-08-17T01:34:07.972Z,3.00
2018-08-17T01:36:36.190Z,2.70
2018-08-17T01:39:08.536Z,3.30
2018-08-17T01:41:36.900Z,2.53
2018-08-17T01:44:05.562Z,3.00
2018-08-17T01:46:33.937Z,3.10
2018-08-17T01:49:02.459Z,2.90
2018-08-17T01:51:31.894Z,3.57
2018-08-17T01:54:00.080Z,3.20
2018-08-17T01:56:28.448Z,3.10
2018-08-17T01:58:56.955Z,3.20
2018-08-17T02:01:25.203Z,2.87
2018-08-17T02:03:53.538Z,3.30
2018-08-17T02:06:21.898Z,3.70
2018-08-17T02:08:50.230Z,3.47
2018-08-17T02:11:18.530Z,3.47
2018-08-17T02:13:46.775Z,3.40
2018-08-17T02:16:16.024Z,2.93
2018-08-17T02:18:44.239Z,2.93
2018-08-17T02:21:12.731Z,3.33
2018-08-17T02:23:41.149Z,3.73
2018-08-17T02:26:09.760Z,3.20
2018-08-17T02:28:37.965Z,3.73
2018-08-17T02:31:06.193Z,3.60
2018-08-17T02:33:34.418Z,3.30
2018-08-17T02:36:02.877Z,3.40
2018-08-17T02:38:31.273Z,3.60
2018-08-17T02:40:59.762Z,3.40
2018-08-17T02:43:28.126Z,3.40
2018-08-17T02:45:56.649Z,3.77
2018-08-17T02:48:25.131Z,3.93
2018-08-17T02:50:53.440Z,3.60
2018-08-17T02:53:21.813Z,3.37
2018-08-17T02:55:50.175Z,2.93
2018-08-17T02:58:18.413Z,3.83
2018-08-17T03:00:53.543Z,3.67
2018-08-17T03:03:21.833Z,3.30
2018-08-17T03:05:50.053Z,3.70
2018-08-17T03:08:18.490Z,3.60
2018-08-17T03:10:47.385Z,3.37
2018-08-17T03:13:16.013Z,4.23
2018-08-17T03:15:44.249Z,3.90
2018-08-17T03:18:12.592Z,3.27
2018-08-17T03:20:40.734Z,4.00
2018-08-17T03:23:09.124Z,3.93
2018-08-17T03:25:37.378Z,2.80
2018-08-17T03:28:05.930Z,3.57
2018-08-17T03:30:34.200Z,3.57
2018-08-17T03:33:02.558Z,3.50
2018-08-17T03:35:31.126Z,3.60
2018-08-17T03:38:00.216Z,3.83
2018-08-17T03:40:28.709Z,3.77
2018-08-17T03:42:57.812Z,3.57
2018-08-17T03:45:26.057Z,3.73
2018-08-17T03:47:54.432Z,3.10
2018-08-17T03:50:22.677Z,4.10
2018-08-17T03:52:51.076Z,3.50
2018-08-17T03:55:19.248Z,3.40
2018-08-17T03:57:47.636Z,3.80
2018-08-17T04:00:20.377Z,3.73
2018-08-17T04:02:48.867Z,4.20
2018-08-17T04:05:17.087Z,3.83
2018-08-17T04:07:45.259Z,3.50
2018-08-17T04:10:13.476Z,3.70
2018-08-17T04:12:41.691Z,4.30
2018-08-17T04:15:10.335Z,3.50
2018-08-17T04:17:38.945Z,3.50
2018-08-17T04:20:08.350Z,3.30
2018-08-17T04:22:36.497Z,3.33
2018-08-17T04:25:04.975Z,3.43
2018-08-17T04:27:33.385Z,3.27
2018-08-17T04:30:03.803Z,4.13
2018-08-17T04:32:31.970Z,4.23
2018-08-17T04:35:00.194Z,3.73
2018-08-17T04:37:29.940Z,3.43
2018-08-17T04:39:58.216Z,3.37
2018-08-17T04:42:26.549Z,4.27
2018-08-17T04:44:54.914Z,3.80
2018-08-17T04:47:23.059Z,3.53
2018-08-17T04:49:51.741Z,3.30
2018-08-17T04:52:20.117Z,3.47
2018-08-17T04:54:48.650Z,3.90
2018-08-17T04:57:16.875Z,3.70
2018-08-17T04:59:46.042Z,3.60
2018-08-17T05:02:14.226Z,3.90
2018-08-17T05:04:43.175Z,4.23
2018-08-17T05:07:11.840Z,3.80
2018-08-17T05:09:40.206Z,3.77
2018-08-17T05:12:09.046Z,3.73
2018-08-17T05:14:37.443Z,4.17
2018-08-17T05:17:05.645Z,3.83
2018-08-17T05:19:33.861Z,3.73
2018-08-17T05:22:01.984Z,4.33
2018-08-17T05:24:31.072Z,4.90
2018-08-17T05:26:59.342Z,4.20
2018-08-17T05:29:27.838Z,4.47
2018-08-17T05:31:56.316Z,4.40
2018-08-17T05:34:25.601Z,4.60
2018-08-17T05:36:53.828Z,4.60
2018-08-17T05:39:22.047Z,4.20
2018-08-17T05:41:50.279Z,4.50
2018-08-17T05:44:18.540Z,4.47
2018-08-17T05:46:46.701Z,5.00
2018-08-17T05:49:14.889Z,4.50
2018-08-17T05:51:43.159Z,4.27
2018-08-17T05:54:11.412Z,4.00
2018-08-17T05:56:39.752Z,4.40
2018-08-17T05:59:08.020Z,4.43
2018-08-17T06:01:36.251Z,3.63
2018-08-17T06:04:04.859Z,5.43
2018-08-17T06:06:33.218Z,5.30
2018-08-17T06:09:05.659Z,5.20
2018-08-17T06:11:35.721Z,4.60
2018-08-17T06:14:05.207Z,5.50
2018-08-17T06:16:33.847Z,4.70
2018-08-17T06:19:02.154Z,5.53
2018-08-17T06:21:30.451Z,5.08
2018-08-17T06:23:58.686Z,5.90
2018-08-17T06:26:27.188Z,5.40
2018-08-17T06:28:55.344Z,5.70
2018-08-17T06:31:25.176Z,7.67
2018-08-17T06:33:53.524Z,5.65
2018-08-17T06:36:21.860Z,6.10
2018-08-17T06:38:50.155Z,4.80
2018-08-17T06:41:18.347Z,6.10
2018-08-17T06:43:46.677Z,7.25
2018-08-17T06:46:14.881Z,7.12
2018-08-17T06:48:43.304Z,4.70
2018-08-17T06:51:11.591Z,6.17
2018-08-17T06:53:39.701Z,4.70
2018-08-17T06:56:07.966Z,4.37
2018-08-17T06:58:36.230Z,4.67
2018-08-17T07:01:04.555Z,5.30
2018-08-17T07:03:32.774Z,6.53
2018-08-17T07:06:01.060Z,4.62
2018-08-17T07:08:29.961Z,5.12
2018-08-17T07:10:58.356Z,5.42
2018-08-17T07:13:27.237Z,4.67
2018-08-17T07:15:55.736Z,5.33
2018-08-17T07:18:23.900Z,5.22
2018-08-17T07:20:52.152Z,6.70
2018-08-17T07:23:20.295Z,4.40
2018-08-17T07:25:48.716Z,5.05
2018-08-17T07:28:17.335Z,4.78
2018-08-17T07:30:45.452Z,3.52
2018-08-17T07:33:13.776Z,5.97
2018-08-17T07:35:41.976Z,5.15
2018-08-17T07:38:10.194Z,4.58
2018-08-17T07:40:38.605Z,4.20
2018-08-17T07:43:07.458Z,4.00
2018-08-17T07:45:35.801Z,3.95
2018-08-17T07:48:04.303Z,3.67
2018-08-17T07:50:32.572Z,4.20
2018-08-17T07:53:01.263Z,5.08
2018-08-17T07:55:29.589Z,3.37
2018-08-17T07:58:00.835Z,4.25
2018-08-17T08:00:29.214Z,3.58
2018-08-17T08:02:57.593Z,4.65
2018-08-17T08:05:25.861Z,4.03
2018-08-17T08:07:54.118Z,5.67
2018-08-17T08:10:22.327Z,4.03
2018-08-17T08:12:50.975Z,3.55
2018-08-17T08:15:19.226Z,3.55
2018-08-17T08:17:47.464Z,3.20
2018-08-17T08:20:33.628Z,3.40
2018-08-17T08:23:20.813Z,2.92
2018-08-17T08:25:50.109Z,3.45
2018-08-17T08:28:20.533Z,4.03
2018-08-17T08:30:49.238Z,2.98
2018-08-17T08:33:18.089Z,4.22
2018-08-17T08:35:47.466Z,4.08
2018-08-17T08:38:16.114Z,3.40
2018-08-17T08:40:44.985Z,3.30
2018-08-17T08:43:14.203Z,4.17
2018-08-17T08:45:42.586Z,3.10
2018-08-17T08:48:11.028Z,3.35
2018-08-17T08:50:39.710Z,3.05
2018-08-17T08:53:09.842Z,3.27
2018-08-17T08:55:38.208Z,2.80
2018-08-17T08:58:07.520Z,2.95
2018-08-17T09:00:36.758Z,2.70
2018-08-17T09:03:06.431Z,2.87
2018-08-17T09:05:37.358Z,2.80
2018-08-17T09:08:06.394Z,2.40
2018-08-17T09:10:35.226Z,2.83
2018-08-17T09:13:04.317Z,3.00
2018-08-17T09:15:32.451Z,2.47
2018-08-17T09:18:00.843Z,2.77
2018-08-17T09:20:29.181Z,3.25
2018-08-17T09:22:57.627Z,2.72
2018-08-17T09:25:25.958Z,3.08
2018-08-17T09:27:54.290Z,3.08
2018-08-17T09:30:27.260Z,2.72
2018-08-17T09:32:55.745Z,3.00
2018-08-17T09:35:24.069Z,3.10
2018-08-17T09:37:52.673Z,2.60
2018-08-17T09:40:20.942Z,2.30
2018-08-17T09:42:49.272Z,2.62
2018-08-17T09:45:17.471Z,3.00
2018-08-17T09:47:45.626Z,3.22
2018-08-17T09:50:14.818Z,3.17
2018-08-17T09:52:43.421Z,3.60
2018-08-17T09:55:11.863Z,3.12
2018-08-17T09:57:40.087Z,2.80
2018-08-17T10:00:09.905Z,3.25
2018-08-17T10:02:43.876Z,3.10
2018-08-17T10:05:17.699Z,2.92
2018-08-17T10:07:51.731Z,3.20
2018-08-17T10:10:22.601Z,2.85
2018-08-17T10:12:51.665Z,3.10
2018-08-17T10:15:21.073Z,2.95
2018-08-17T10:17:49.505Z,3.50
2018-08-17T10:20:19.020Z,3.22
2018-08-17T10:22:47.248Z,3.70
2018-08-17T10:25:17.336Z,3.58
2018-08-17T10:27:47.464Z,3.77
2018-08-17T10:30:16.320Z,3.60
2018-08-17T10:32:49.360Z,2.98
2018-08-17T10:35:24.926Z,3.45
2018-08-17T10:37:55.258Z,3.10
2018-08-17T10:40:24.325Z,3.62
2018-08-17T10:42:52.795Z,3.52
2018-08-17T10:45:22.531Z,3.87
2018-08-17T10:47:51.270Z,4.20
2018-08-17T10:50:20.625Z,3.80
2018-08-17T10:52:50.736Z,3.60
2018-08-17T10:55:19.507Z,3.72
2018-08-17T10:57:47.889Z,4.28
2018-08-17T11:00:20.305Z,4.67
2018-08-17T11:02:48.752Z,5.35
2018-08-17T11:05:17.800Z,4.20
2018-08-17T11:07:47.230Z,3.80
2018-08-17T11:10:15.606Z,4.47
2018-08-17T11:12:45.127Z,4.80
2018-08-17T11:15:13.698Z,4.50
2018-08-17T11:17:43.848Z,4.05
2018-08-17T11:20:14.050Z,4.53
2018-08-17T11:22:42.840Z,4.20
2018-08-17T11:25:11.694Z,4.40
2018-08-17T11:27:40.000Z,4.40
2018-08-17T11:30:12.574Z,4.22
2018-08-17T11:32:42.004Z,4.97
2018-08-17T11:35:10.270Z,4.92
2018-08-17T11:37:38.649Z,4.83
2018-08-17T11:40:09.411Z,4.72
2018-08-17T11:42:40.925Z,3.20
2018-08-17T11:45:21.717Z,4.50
2018-08-17T11:47:50.574Z,3.87
2018-08-17T11:50:20.855Z,4.65
2018-08-17T11:52:54.399Z,5.12
2018-08-17T11:55:24.101Z,5.00
2018-08-17T11:57:52.643Z,4.80
2018-08-17T12:00:21.195Z,5.05
2018-08-17T12:02:49.405Z,4.70
2018-08-17T12:05:17.655Z,4.70
2018-08-17T12:07:46.526Z,4.40
2018-08-17T12:10:14.920Z,4.50
2018-08-17T12:12:43.935Z,5.05
2018-08-17T12:15:12.887Z,4.65
2018-08-17T12:17:41.106Z,4.90
2018-08-17T12:20:10.761Z,4.40
2018-08-17T12:22:39.300Z,4.30
2018-08-17T12:25:08.758Z,4.08
2018-08-17T12:27:36.969Z,4.70
2018-08-17T12:30:07.542Z,4.50
2018-08-17T12:32:36.590Z,4.15
2018-08-17T12:35:05.558Z,3.30
2018-08-17T12:37:34.284Z,3.80
2018-08-17T12:40:03.270Z,3.17
2018-08-17T12:42:37.148Z,3.30
2018-08-17T12:45:11.803Z,2.92
2018-08-17T12:47:41.314Z,3.25
2018-08-17T12:50:09.594Z,3.20
2018-08-17T12:52:37.974Z,2.98
2018-08-17T12:55:06.196Z,3.60
2018-08-17T12:57:41.119Z,4.08
2018-08-17T13:00:10.336Z,3.95
2018-08-17T13:02:38.932Z,3.40
2018-08-17T13:05:08.614Z,4.10
2018-08-17T13:07:38.329Z,3.65
2018-08-17T13:10:06.642Z,3.72
2018-08-17T13:12:35.357Z,3.42
2018-08-17T13:15:05.030Z,3.35
2018-08-17T13:17:41.140Z,4.20
2018-08-17T13:20:10.091Z,3.90
2018-08-17T13:22:40.441Z,4.10
2018-08-17T13:25:08.749Z,3.90
2018-08-17T13:27:37.566Z,3.70
2018-08-17T13:30:10.085Z,3.87
2018-08-17T13:32:38.329Z,3.90
2018-08-17T13:35:07.195Z,3.40
2018-08-17T13:37:35.815Z,3.33
2018-08-17T13:40:05.636Z,3.35
2018-08-17T13:42:35.615Z,3.90
2018-08-17T13:45:05.671Z,3.67
2018-08-17T13:47:36.530Z,3.70
2018-08-17T13:50:05.503Z,4.28
2018-08-17T13:52:34.511Z,4.00
2018-08-17T13:55:04.783Z,4.20
2018-08-17T13:57:35.059Z,4.85
2018-08-17T14:00:06.923Z,4.50
2018-08-17T14:02:40.239Z,4.70
2018-08-17T14:05:12.779Z,4.40
2018-08-17T14:07:44.843Z,3.75
2018-08-17T14:10:16.289Z,3.47
2018-08-17T14:12:49.407Z,3.10
2018-08-17T14:15:22.379Z,3.70
2018-08-17T14:17:51.840Z,3.90
2018-08-17T14:20:22.071Z,4.00
2018-08-17T14:22:53.078Z,3.27
2018-08-17T14:25:26.363Z,3.90
2018-08-17T14:27:58.397Z,3.80
2018-08-17T14:30:27.089Z,3.98
2018-08-17T14:32:56.416Z,3.90
2018-08-17T14:35:25.604Z,3.83
2018-08-17T14:37:54.641Z,4.55
2018-08-17T14:40:23.542Z,3.75
2018-08-17T14:42:52.187Z,3.98
2018-08-17T14:45:20.503Z,3.47
2018-08-17T14:47:48.966Z,3.70
2018-08-17T14:50:17.863Z,4.55
2018-08-17T14:52:46.806Z,5.15
2018-08-17T14:55:15.550Z,4.90
2018-08-17T14:57:44.632Z,4.65
2018-08-17T15:00:14.093Z,4.75
2018-08-17T15:02:42.454Z,4.72
2018-08-17T15:05:12.289Z,4.92
2018-08-17T15:07:40.980Z,5.05
2018-08-17T15:10:11.732Z,5.20
2018-08-17T15:12:41.498Z,4.70
2018-08-17T15:15:10.907Z,4.67
2018-08-17T15:17:40.495Z,5.00
2018-08-17T15:20:10.547Z,4.80
2018-08-17T15:22:38.876Z,4.05
2018-08-17T15:25:07.172Z,4.30
2018-08-17T15:27:35.473Z,4.08
2018-08-17T15:30:05.445Z,4.67
2018-08-17T15:32:33.629Z,4.50
2018-08-17T15:35:01.889Z,4.90
2018-08-17T15:37:31.044Z,4.42
2018-08-17T15:39:59.857Z,5.05
2018-08-17T15:42:28.338Z,4.85
2018-08-17T15:44:56.538Z,4.12
2018-08-17T15:47:24.832Z,3.80
2018-08-17T15:50:27.419Z,4.75
2018-08-17T15:52:55.836Z,4.80
2018-08-17T15:55:24.154Z,5.25
2018-08-17T15:57:52.398Z,5.00
2018-08-17T16:00:20.524Z,5.03
2018-08-17T16:02:48.726Z,4.78
2018-08-17T16:05:16.967Z,5.25
2018-08-17T16:07:45.205Z,4.78
2018-08-17T16:10:15.191Z,5.45
2018-08-17T16:12:43.913Z,5.10
2018-08-17T16:15:12.165Z,5.30
2018-08-17T16:17:40.328Z,4.80
2018-08-17T16:20:10.493Z,4.90
2018-08-17T16:22:39.048Z,5.00
2018-08-17T16:25:08.498Z,5.15
2018-08-17T16:27:36.810Z,5.03
2018-08-17T16:30:07.603Z,5.55
2018-08-17T16:32:35.848Z,5.10
2018-08-17T16:35:04.407Z,5.12
2018-08-17T16:37:32.842Z,5.45
2018-08-17T16:40:00.941Z,5.33
2018-08-17T16:42:35.028Z,5.15
2018-08-17T16:45:04.587Z,4.67
2018-08-17T16:47:32.718Z,5.10
2018-08-17T16:50:02.057Z,4.85
2018-08-17T16:52:30.289Z,5.53
2018-08-17T16:54:58.890Z,5.00
2018-08-17T16:57:27.410Z,5.45
2018-08-17T16:59:55.602Z,5.22
2018-08-17T17:02:23.852Z,5.37
2018-08-17T17:04:52.076Z,5.20
2018-08-17T17:07:25.152Z,5.37
2018-08-17T17:09:53.334Z,5.42
2018-08-17T17:12:21.501Z,5.00
2018-08-17T17:14:49.842Z,5.40
2018-08-17T17:17:18.010Z,5.42
2018-08-17T17:19:46.365Z,5.28
2018-08-17T17:22:14.510Z,5.55
2018-08-17T17:24:42.792Z,5.67
2018-08-17T17:27:10.978Z,6.55
2018-08-17T17:29:39.136Z,6.13
2018-08-17T17:32:07.316Z,5.67
2018-08-17T17:34:35.532Z,5.33
2018-08-17T17:37:03.762Z,6.23
2018-08-17T17:39:32.044Z,6.07
2018-08-17T17:42:00.593Z,6.70
2018-08-17T17:44:28.910Z,6.47
2018-08-17T17:46:57.132Z,6.17
2018-08-17T17:49:25.431Z,6.40
2018-08-17T17:51:53.658Z,6.57
2018-08-17T17:54:24.802Z,6.10
2018-08-17T17:57:01.145Z,6.23
2018-08-17T17:59:29.341Z,5.80
2018-08-17T18:01:57.598Z,6.50
2018-08-17T18:04:30.944Z,6.40
2018-08-17T18:07:00.021Z,6.77
2018-08-17T18:09:28.261Z,5.93
2018-08-17T18:11:56.996Z,6.43
2018-08-17T18:14:25.211Z,6.13
2018-08-17T18:16:53.978Z,6.37
2018-08-17T18:19:22.385Z,7.03
2018-08-17T18:21:50.546Z,6.83
2018-08-17T18:24:18.728Z,6.40
2018-08-17T18:26:49.073Z,6.83
2018-08-17T18:29:17.985Z,6.77
2018-08-17T18:31:46.223Z,6.93
2018-08-17T18:34:14.843Z,6.93
2018-08-17T18:36:43.070Z,6.20
2018-08-17T18:39:14.647Z,6.87
2018-08-17T18:41:42.899Z,6.83
2018-08-17T18:44:11.697Z,5.83
2018-08-17T18:46:39.959Z,7.30
2018-08-17T18:49:08.331Z,6.23
2018-08-17T18:51:36.485Z,6.50
2018-08-17T18:54:05.174Z,6.50
2018-08-17T18:56:33.517Z,6.93
2018-08-17T18:59:01.748Z,5.80
2018-08-17T19:01:29.893Z,6.53
2018-08-17T19:03:58.144Z,6.10
2018-08-17T19:06:26.364Z,6.67
2018-08-17T19:08:54.764Z,6.07
2018-08-17T19:11:23.008Z,6.87
2018-08-17T19:13:51.176Z,7.20
2018-08-17T19:16:19.389Z,6.63
2018-08-17T19:18:47.646Z,6.03
2018-08-17T19:21:15.906Z,7.07
2018-08-17T19:23:44.061Z,5.83
2018-08-17T19:26:12.312Z,7.20
2018-08-17T19:28:40.466Z,6.27
2018-08-17T19:31:08.672Z,5.30
2018-08-17T19:33:36.957Z,7.53
2018-08-17T19:36:05.237Z,5.30
2018-08-17T19:38:38.604Z,5.13
2018-08-17T19:41:06.888Z,7.53
2018-08-17T19:43:35.114Z,7.63
2018-08-17T19:46:03.358Z,6.20
2018-08-17T19:48:31.501Z,5.50
2018-08-17T19:50:59.766Z,4.90
2018-08-17T19:53:28.442Z,4.73
2018-08-17T19:55:56.902Z,4.10
2018-08-17T19:58:25.395Z,3.80
2018-08-17T20:00:53.644Z,4.00
2018-08-17T20:03:21.894Z,4.40
2018-08-17T20:05:50.822Z,3.70
2018-08-17T20:08:19.743Z,3.50
2018-08-17T20:10:48.098Z,3.23
2018-08-17T20:13:16.407Z,3.20
2018-08-17T20:15:44.589Z,3.67
2018-08-17T20:18:13.341Z,3.40
2018-08-17T20:20:41.618Z,3.37
2018-08-17T20:23:09.819Z,3.37
2018-08-17T20:25:38.750Z,3.40
2018-08-17T20:28:07.901Z,3.23
2018-08-17T20:30:36.165Z,3.50
2018-08-17T20:33:15.673Z,3.10
2018-08-17T20:35:43.865Z,3.50
2018-08-17T20:38:12.120Z,2.37
2018-08-17T20:40:40.310Z,3.90
2018-08-17T20:43:08.724Z,2.80
2018-08-17T20:45:36.808Z,3.57
2018-08-17T20:48:05.068Z,3.20
2018-08-17T20:50:33.258Z,4.10
2018-08-17T20:53:01.539Z,4.03
2018-08-17T20:55:29.729Z,4.40
2018-08-17T20:57:58.532Z,2.70
2018-08-17T21:00:28.542Z,3.47
2018-08-17T21:02:56.777Z,3.63
2018-08-17T21:05:25.388Z,4.07
2018-08-17T21:07:53.649Z,3.20
2018-08-17T21:10:21.905Z,3.37
2018-08-17T21:12:50.248Z,3.73
2018-08-17T21:15:18.742Z,3.97
2018-08-17T21:17:47.603Z,3.80
2018-08-17T21:20:15.813Z,3.50
2018-08-17T21:22:44.076Z,3.77
2018-08-17T21:25:12.337Z,4.33
2018-08-17T21:27:40.530Z,4.00
2018-08-17T21:30:09.268Z,3.70
2018-08-17T21:32:37.516Z,4.10
2018-08-17T21:35:06.742Z,4.07
2018-08-17T21:37:35.089Z,3.90
2018-08-17T21:40:04.198Z,4.17
2018-08-17T21:42:34.614Z,3.80
2018-08-17T21:45:02.852Z,3.80
2018-08-17T21:47:31.010Z,2.70
2018-08-17T21:50:09.701Z,3.13
2018-08-17T21:52:38.104Z,4.07
2018-08-17T21:55:06.446Z,3.80
2018-08-17T21:57:34.880Z,3.40
2018-08-17T22:00:04.399Z,3.40
2018-08-17T22:02:32.665Z,3.60
2018-08-17T22:05:00.884Z,3.70
2018-08-17T22:07:31.334Z,4.00
2018-08-17T22:09:59.600Z,3.40
2018-08-17T22:12:27.909Z,3.87
2018-08-17T22:14:56.362Z,3.63
2018-08-17T22:17:36.368Z,4.00
2018-08-17T22:20:08.046Z,4.13
2018-08-17T22:22:36.288Z,4.17
2018-08-17T22:25:13.404Z,3.83
2018-08-17T22:27:41.627Z,3.90
2018-08-17T22:30:24.798Z,4.20
2018-08-17T22:32:53.095Z,3.47
2018-08-17T22:35:22.214Z,3.97
2018-08-17T22:37:50.506Z,4.73
2018-08-17T22:40:18.701Z,3.97
2018-08-17T22:42:48.087Z,4.90
2018-08-17T22:45:16.523Z,4.50
2018-08-17T22:47:45.041Z,4.00
2018-08-17T22:50:13.273Z,4.30
2018-08-17T22:52:41.635Z,3.70
2018-08-17T22:55:10.052Z,3.40
2018-08-17T22:57:38.403Z,3.67
2018-08-17T23:00:24.414Z,3.43
2018-08-17T23:02:55.922Z,3.73
2018-08-17T23:05:28.515Z,2.80
2018-08-17T23:07:56.736Z,2.70
2018-08-17T23:10:26.102Z,3.50
2018-08-17T23:12:54.926Z,2.87
2018-08-17T23:15:23.480Z,2.60
2018-08-17T23:17:55.752Z,3.33
2018-08-17T23:20:29.653Z,2.80
2018-08-17T23:23:00.096Z,2.97
2018-08-17T23:25:28.801Z,3.10
2018-08-17T23:27:57.719Z,3.00
2018-08-17T23:30:26.135Z,3.07
2018-08-17T23:32:54.445Z,3.23
2018-08-17T23:35:22.720Z,3.50
2018-08-17T23:37:51.512Z,3.03
2018-08-17T23:40:20.599Z,2.90
2018-08-17T23:42:48.886Z,2.73
2018-08-17T23:45:17.810Z,2.90
2018-08-17T23:47:46.052Z,2.90
2018-08-17T23:50:15.140Z,2.43
2018-08-17T23:52:43.504Z,2.60
2018-08-17T23:55:17.772Z,2.83
2018-08-17T23:57:46.924Z,2.77
